sensor_id;sensor_type;location;lat;lon;timestamp;temperature;humidity
23717;DHT22;22094;52.130;5.598;2022-10-31T00:02:03;12.40;99.90
23717;DHT22;22094;52.130;5.598;2022-10-31T00:04:28;12.10;99.90
23717;DHT22;22094;52.130;5.598;2022-10-31T00:06:54;12.10;99.90
23717;DHT22;22094;52.130;5.598;2022-10-31T00:09:19;12.10;99.90
23717;DHT22;22094;52.130;5.598;2022-10-31T00:11:45;12.10;99.90
23717;DHT22;22094;52.130;5.598;2022-10-31T00:14:11;12.10;99.90
23717;DHT22;22094;52.130;5.598;2022-10-31T00:16:36;12.00;99.90
23717;DHT22;22094;52.130;5.598;2022-10-31T00:19:04;12.20;99.90
23717;DHT22;22094;52.130;5.598;2022-10-31T00:21:32;12.30;99.90
23717;DHT22;22094;52.130;5.598;2022-10-31T00:23:58;12.20;99.90
23717;DHT22;22094;52.130;5.598;2022-10-31T00:26:26;12.40;99.90
23717;DHT22;22094;52.130;5.598;2022-10-31T00:28:51;12.30;99.90
23717;DHT22;22094;52.130;5.598;2022-10-31T00:31:17;12.20;99.90
23717;DHT22;22094;52.130;5.598;2022-10-31T00:33:43;12.20;99.90
23717;DHT22;22094;52.130;5.598;2022-10-31T00:36:17;12.20;99.90
23717;DHT22;22094;52.130;5.598;2022-10-31T00:38:43;12.20;99.90
23717;DHT22;22094;52.130;5.598;2022-10-31T00:41:10;12.10;99.90
23717;DHT22;22094;52.130;5.598;2022-10-31T00:43:36;12.00;99.90
23717;DHT22;22094;52.130;5.598;2022-10-31T00:46:02;12.00;99.90
23717;DHT22;22094;52.130;5.598;2022-10-31T00:48:28;12.10;99.90
23717;DHT22;22094;52.130;5.598;2022-10-31T00:50:54;12.10;99.90
23717;DHT22;22094;52.130;5.598;2022-10-31T00:53:19;12.10;99.90
23717;DHT22;22094;52.130;5.598;2022-10-31T00:55:45;12.10;99.90
23717;DHT22;22094;52.130;5.598;2022-10-31T00:58:11;12.10;99.90
23717;DHT22;22094;52.130;5.598;2022-10-31T01:00:36;12.10;99.90
23717;DHT22;22094;52.130;5.598;2022-10-31T01:03:02;12.10;99.90
23717;DHT22;22094;52.130;5.598;2022-10-31T01:05:28;12.10;99.90
23717;DHT22;22094;52.130;5.598;2022-10-31T01:07:53;12.10;99.90
23717;DHT22;22094;52.130;5.598;2022-10-31T01:10:19;12.10;99.90
23717;DHT22;22094;52.130;5.598;2022-10-31T01:12:47;12.10;99.90
23717;DHT22;22094;52.130;5.598;2022-10-31T01:15:16;12.10;99.90
23717;DHT22;22094;52.130;5.598;2022-10-31T01:17:42;12.00;99.90
23717;DHT22;22094;52.130;5.598;2022-10-31T01:20:09;11.90;99.90
23717;DHT22;22094;52.130;5.598;2022-10-31T01:22:35;11.90;99.90
23717;DHT22;22094;52.130;5.598;2022-10-31T01:25:01;11.90;99.90
23717;DHT22;22094;52.130;5.598;2022-10-31T01:27:26;11.90;99.90
23717;DHT22;22094;52.130;5.598;2022-10-31T01:29:52;11.70;99.90
23717;DHT22;22094;52.130;5.598;2022-10-31T01:32:18;11.70;99.90
23717;DHT22;22094;52.130;5.598;2022-10-31T01:34:43;11.70;99.90
23717;DHT22;22094;52.130;5.598;2022-10-31T01:37:09;11.60;99.90
23717;DHT22;22094;52.130;5.598;2022-10-31T01:39:34;11.60;99.90
23717;DHT22;22094;52.130;5.598;2022-10-31T01:42:00;11.50;99.90
23717;DHT22;22094;52.130;5.598;2022-10-31T01:46:54;11.40;99.90
23717;DHT22;22094;52.130;5.598;2022-10-31T01:52:24;11.20;99.90
23717;DHT22;22094;52.130;5.598;2022-10-31T01:55:16;11.10;99.90
23717;DHT22;22094;52.130;5.598;2022-10-31T01:57:47;11.00;99.90
23717;DHT22;22094;52.130;5.598;2022-10-31T02:00:14;10.90;99.90
23717;DHT22;22094;52.130;5.598;2022-10-31T02:02:41;10.80;99.90
23717;DHT22;22094;52.130;5.598;2022-10-31T02:05:11;10.70;99.90
23717;DHT22;22094;52.130;5.598;2022-10-31T02:08:07;10.60;99.90
23717;DHT22;22094;52.130;5.598;2022-10-31T02:10:36;10.60;99.90
23717;DHT22;22094;52.130;5.598;2022-10-31T02:13:05;10.50;99.90
23717;DHT22;22094;52.130;5.598;2022-10-31T02:15:32;10.40;99.90
23717;DHT22;22094;52.130;5.598;2022-10-31T02:17:58;10.30;99.90
23717;DHT22;22094;52.130;5.598;2022-10-31T02:20:26;10.20;99.90
23717;DHT22;22094;52.130;5.598;2022-10-31T02:26:00;10.10;99.90
23717;DHT22;22094;52.130;5.598;2022-10-31T02:31:17;10.00;99.90
23717;DHT22;22094;52.130;5.598;2022-10-31T02:33:48;9.90;99.90
23717;DHT22;22094;52.130;5.598;2022-10-31T02:36:41;10.10;99.90
23717;DHT22;22094;52.130;5.598;2022-10-31T02:39:12;10.10;99.90
23717;DHT22;22094;52.130;5.598;2022-10-31T02:41:52;10.00;99.90
23717;DHT22;22094;52.130;5.598;2022-10-31T02:44:31;9.90;99.90
23717;DHT22;22094;52.130;5.598;2022-10-31T02:47:16;9.80;99.90
23717;DHT22;22094;52.130;5.598;2022-10-31T02:54:52;9.70;99.90
23717;DHT22;22094;52.130;5.598;2022-10-31T02:57:22;9.80;99.90
23717;DHT22;22094;52.130;5.598;2022-10-31T02:59:53;9.90;99.90
23717;DHT22;22094;52.130;5.598;2022-10-31T03:08:10;9.50;99.90
23717;DHT22;22094;52.130;5.598;2022-10-31T03:10:57;9.40;99.90
23717;DHT22;22094;52.130;5.598;2022-10-31T03:19:00;9.30;99.90
23717;DHT22;22094;52.130;5.598;2022-10-31T03:21:33;9.30;99.90
23717;DHT22;22094;52.130;5.598;2022-10-31T03:24:01;9.20;99.90
23717;DHT22;22094;52.130;5.598;2022-10-31T03:26:27;9.20;99.90
23717;DHT22;22094;52.130;5.598;2022-10-31T03:29:05;9.10;99.90
23717;DHT22;22094;52.130;5.598;2022-10-31T03:31:38;9.10;99.90
23717;DHT22;22094;52.130;5.598;2022-10-31T03:34:06;9.10;99.90
23717;DHT22;22094;52.130;5.598;2022-10-31T03:36:35;9.10;99.90
23717;DHT22;22094;52.130;5.598;2022-10-31T03:39:04;9.10;99.90
23717;DHT22;22094;52.130;5.598;2022-10-31T03:41:39;9.30;99.90
23717;DHT22;22094;52.130;5.598;2022-10-31T03:44:10;9.20;99.90
23717;DHT22;22094;52.130;5.598;2022-10-31T03:46:36;8.90;99.90
23717;DHT22;22094;52.130;5.598;2022-10-31T03:49:03;8.80;99.90
23717;DHT22;22094;52.130;5.598;2022-10-31T03:54:21;8.90;99.90
23717;DHT22;22094;52.130;5.598;2022-10-31T03:56:59;8.80;99.90
23717;DHT22;22094;52.130;5.598;2022-10-31T03:59:35;8.80;99.90
23717;DHT22;22094;52.130;5.598;2022-10-31T04:02:05;8.80;99.90
23717;DHT22;22094;52.130;5.598;2022-10-31T04:04:32;8.70;99.90
23717;DHT22;22094;52.130;5.598;2022-10-31T04:07:00;8.60;99.90
23717;DHT22;22094;52.130;5.598;2022-10-31T04:09:28;8.50;99.90
23717;DHT22;22094;52.130;5.598;2022-10-31T04:11:57;9.10;99.90
23717;DHT22;22094;52.130;5.598;2022-10-31T04:14:26;8.40;99.90
23717;DHT22;22094;52.130;5.598;2022-10-31T04:16:53;8.40;99.90
23717;DHT22;22094;52.130;5.598;2022-10-31T04:19:19;8.50;99.90
23717;DHT22;22094;52.130;5.598;2022-10-31T04:21:45;8.50;99.90
23717;DHT22;22094;52.130;5.598;2022-10-31T04:24:11;8.50;99.90
23717;DHT22;22094;52.130;5.598;2022-10-31T04:26:37;8.30;99.90
23717;DHT22;22094;52.130;5.598;2022-10-31T04:29:02;8.50;99.90
23717;DHT22;22094;52.130;5.598;2022-10-31T04:31:28;8.30;99.90
23717;DHT22;22094;52.130;5.598;2022-10-31T04:33:54;8.60;99.90
23717;DHT22;22094;52.130;5.598;2022-10-31T04:36:20;8.30;99.90
23717;DHT22;22094;52.130;5.598;2022-10-31T04:38:46;8.70;99.90
23717;DHT22;22094;52.130;5.598;2022-10-31T04:41:11;8.40;99.90
23717;DHT22;22094;52.130;5.598;2022-10-31T04:43:37;8.30;99.90
23717;DHT22;22094;52.130;5.598;2022-10-31T04:46:03;8.30;99.90
23717;DHT22;22094;52.130;5.598;2022-10-31T04:51:15;8.00;99.90
23717;DHT22;22094;52.130;5.598;2022-10-31T04:53:41;8.30;99.90
23717;DHT22;22094;52.130;5.598;2022-10-31T04:56:07;8.10;99.90
23717;DHT22;22094;52.130;5.598;2022-10-31T04:58:32;8.10;99.90
23717;DHT22;22094;52.130;5.598;2022-10-31T05:00:58;8.00;99.90
23717;DHT22;22094;52.130;5.598;2022-10-31T05:03:24;8.40;99.90
23717;DHT22;22094;52.130;5.598;2022-10-31T05:05:49;8.00;99.90
23717;DHT22;22094;52.130;5.598;2022-10-31T05:08:28;7.90;99.90
23717;DHT22;22094;52.130;5.598;2022-10-31T05:10:54;7.90;99.90
23717;DHT22;22094;52.130;5.598;2022-10-31T05:13:19;7.90;99.90
23717;DHT22;22094;52.130;5.598;2022-10-31T05:15:45;7.90;99.90
23717;DHT22;22094;52.130;5.598;2022-10-31T05:18:11;8.20;99.90
23717;DHT22;22094;52.130;5.598;2022-10-31T05:20:37;8.00;99.90
23717;DHT22;22094;52.130;5.598;2022-10-31T05:23:05;8.20;99.90
23717;DHT22;22094;52.130;5.598;2022-10-31T05:25:31;7.90;99.90
23717;DHT22;22094;52.130;5.598;2022-10-31T05:27:57;8.00;99.90
23717;DHT22;22094;52.130;5.598;2022-10-31T05:30:25;7.90;99.90
23717;DHT22;22094;52.130;5.598;2022-10-31T05:33:04;7.80;99.90
23717;DHT22;22094;52.130;5.598;2022-10-31T05:35:31;7.70;99.90
23717;DHT22;22094;52.130;5.598;2022-10-31T05:37:58;7.60;99.90
23717;DHT22;22094;52.130;5.598;2022-10-31T05:40:23;7.50;99.90
23717;DHT22;22094;52.130;5.598;2022-10-31T05:42:54;7.50;99.90
23717;DHT22;22094;52.130;5.598;2022-10-31T05:45:20;7.80;99.90
23717;DHT22;22094;52.130;5.598;2022-10-31T05:47:54;7.80;99.90
23717;DHT22;22094;52.130;5.598;2022-10-31T05:50:21;7.40;99.90
23717;DHT22;22094;52.130;5.598;2022-10-31T05:52:53;7.50;99.90
23717;DHT22;22094;52.130;5.598;2022-10-31T05:55:19;7.90;99.90
23717;DHT22;22094;52.130;5.598;2022-10-31T05:57:44;7.60;99.90
23717;DHT22;22094;52.130;5.598;2022-10-31T06:00:10;7.50;99.90
23717;DHT22;22094;52.130;5.598;2022-10-31T06:02:36;7.50;99.90
23717;DHT22;22094;52.130;5.598;2022-10-31T06:05:02;7.60;99.90
23717;DHT22;22094;52.130;5.598;2022-10-31T06:07:32;7.40;99.90
23717;DHT22;22094;52.130;5.598;2022-10-31T06:09:58;7.50;99.90
23717;DHT22;22094;52.130;5.598;2022-10-31T06:12:23;7.50;99.90
23717;DHT22;22094;52.130;5.598;2022-10-31T06:14:49;7.40;99.90
23717;DHT22;22094;52.130;5.598;2022-10-31T06:17:14;7.40;99.90
23717;DHT22;22094;52.130;5.598;2022-10-31T06:19:40;7.40;99.90
23717;DHT22;22094;52.130;5.598;2022-10-31T06:22:06;7.40;99.90
23717;DHT22;22094;52.130;5.598;2022-10-31T06:24:31;7.30;99.90
23717;DHT22;22094;52.130;5.598;2022-10-31T06:26:57;7.30;99.90
23717;DHT22;22094;52.130;5.598;2022-10-31T06:29:22;7.20;99.90
23717;DHT22;22094;52.130;5.598;2022-10-31T06:31:51;7.20;99.90
23717;DHT22;22094;52.130;5.598;2022-10-31T06:34:17;7.20;99.90
23717;DHT22;22094;52.130;5.598;2022-10-31T06:36:42;7.20;99.90
23717;DHT22;22094;52.130;5.598;2022-10-31T06:39:08;7.20;99.90
23717;DHT22;22094;52.130;5.598;2022-10-31T06:41:33;7.20;99.90
23717;DHT22;22094;52.130;5.598;2022-10-31T06:43:59;7.20;99.90
23717;DHT22;22094;52.130;5.598;2022-10-31T06:46:24;7.30;99.90
23717;DHT22;22094;52.130;5.598;2022-10-31T06:48:50;7.10;99.90
23717;DHT22;22094;52.130;5.598;2022-10-31T06:51:16;7.10;99.90
23717;DHT22;22094;52.130;5.598;2022-10-31T06:53:41;7.10;99.90
23717;DHT22;22094;52.130;5.598;2022-10-31T06:56:07;7.20;99.90
23717;DHT22;22094;52.130;5.598;2022-10-31T06:58:32;7.50;99.90
23717;DHT22;22094;52.130;5.598;2022-10-31T07:01:01;7.40;99.90
23717;DHT22;22094;52.130;5.598;2022-10-31T07:03:26;7.40;99.90
23717;DHT22;22094;52.130;5.598;2022-10-31T07:05:54;7.40;99.90
23717;DHT22;22094;52.130;5.598;2022-10-31T07:08:19;7.30;99.90
23717;DHT22;22094;52.130;5.598;2022-10-31T07:10:51;7.40;99.90
23717;DHT22;22094;52.130;5.598;2022-10-31T07:13:52;7.50;99.90
23717;DHT22;22094;52.130;5.598;2022-10-31T07:16:41;7.60;99.90
23717;DHT22;22094;52.130;5.598;2022-10-31T07:19:07;7.70;99.90
23717;DHT22;22094;52.130;5.598;2022-10-31T07:21:32;7.70;99.90
23717;DHT22;22094;52.130;5.598;2022-10-31T07:23:58;7.90;99.90
23717;DHT22;22094;52.130;5.598;2022-10-31T07:26:24;5.80;99.90
23717;DHT22;22094;52.130;5.598;2022-10-31T07:28:49;7.90;99.90
23717;DHT22;22094;52.130;5.598;2022-10-31T07:31:15;8.00;99.90
23717;DHT22;22094;52.130;5.598;2022-10-31T07:33:40;8.00;99.90
23717;DHT22;22094;52.130;5.598;2022-10-31T07:36:06;8.10;99.90
23717;DHT22;22094;52.130;5.598;2022-10-31T07:38:32;8.20;99.90
23717;DHT22;22094;52.130;5.598;2022-10-31T07:40:57;8.20;99.90
23717;DHT22;22094;52.130;5.598;2022-10-31T07:43:23;8.20;99.90
23717;DHT22;22094;52.130;5.598;2022-10-31T07:45:50;8.40;99.90
23717;DHT22;22094;52.130;5.598;2022-10-31T07:53:10;8.60;99.90
23717;DHT22;22094;52.130;5.598;2022-10-31T07:55:37;9.20;99.90
23717;DHT22;22094;52.130;5.598;2022-10-31T08:00:30;9.20;99.90
23717;DHT22;22094;52.130;5.598;2022-10-31T08:05:28;9.50;99.90
23717;DHT22;22094;52.130;5.598;2022-10-31T08:07:54;9.70;99.90
23717;DHT22;22094;52.130;5.598;2022-10-31T08:10:20;9.80;99.90
23717;DHT22;22094;52.130;5.598;2022-10-31T08:12:46;10.40;99.90
23717;DHT22;22094;52.130;5.598;2022-10-31T08:15:11;10.10;99.90
23717;DHT22;22094;52.130;5.598;2022-10-31T08:17:37;12.30;99.90
23717;DHT22;22094;52.130;5.598;2022-10-31T08:20:07;10.10;99.90
23717;DHT22;22094;52.130;5.598;2022-10-31T08:22:33;10.20;99.90
23717;DHT22;22094;52.130;5.598;2022-10-31T08:24:58;10.40;99.90
23717;DHT22;22094;52.130;5.598;2022-10-31T08:29:50;10.80;99.90
23717;DHT22;22094;52.130;5.598;2022-10-31T08:34:41;11.00;99.90
23717;DHT22;22094;52.130;5.598;2022-10-31T08:37:07;11.20;99.90
23717;DHT22;22094;52.130;5.598;2022-10-31T08:39:32;11.40;99.90
23717;DHT22;22094;52.130;5.598;2022-10-31T08:44:24;11.80;99.90
23717;DHT22;22094;52.130;5.598;2022-10-31T08:49:15;12.10;99.90
23717;DHT22;22094;52.130;5.598;2022-10-31T08:51:41;12.10;99.90
23717;DHT22;22094;52.130;5.598;2022-10-31T08:54:06;12.30;99.90
23717;DHT22;22094;52.130;5.598;2022-10-31T08:58:58;12.40;99.90
23717;DHT22;22094;52.130;5.598;2022-10-31T09:01:23;11.00;99.90
23717;DHT22;22094;52.130;5.598;2022-10-31T09:06:15;12.90;99.90
23717;DHT22;22094;52.130;5.598;2022-10-31T09:08:40;13.00;99.90
23717;DHT22;22094;52.130;5.598;2022-10-31T09:11:06;13.10;99.90
23717;DHT22;22094;52.130;5.598;2022-10-31T09:13:41;13.30;99.90
23717;DHT22;22094;52.130;5.598;2022-10-31T09:16:27;13.20;99.90
23717;DHT22;22094;52.130;5.598;2022-10-31T09:19:01;12.50;99.90
23717;DHT22;22094;52.130;5.598;2022-10-31T09:21:27;15.00;99.90
23717;DHT22;22094;52.130;5.598;2022-10-31T09:28:45;13.70;99.90
23717;DHT22;22094;52.130;5.598;2022-10-31T09:31:11;14.40;99.90
23717;DHT22;22094;52.130;5.598;2022-10-31T09:33:37;13.70;99.90
23717;DHT22;22094;52.130;5.598;2022-10-31T09:36:03;13.80;99.90
23717;DHT22;22094;52.130;5.598;2022-10-31T09:38:28;13.90;99.90
23717;DHT22;22094;52.130;5.598;2022-10-31T09:47:04;14.10;99.90
23717;DHT22;22094;52.130;5.598;2022-10-31T09:50:11;13.30;99.90
23717;DHT22;22094;52.130;5.598;2022-10-31T09:52:41;14.30;99.90
23717;DHT22;22094;52.130;5.598;2022-10-31T09:55:23;14.40;99.90
23717;DHT22;22094;52.130;5.598;2022-10-31T10:00:20;14.40;99.90
23717;DHT22;22094;52.130;5.598;2022-10-31T10:03:17;17.10;99.90
23717;DHT22;22094;52.130;5.598;2022-10-31T10:05:52;14.80;99.90
23717;DHT22;22094;52.130;5.598;2022-10-31T10:08:21;14.50;99.90
23717;DHT22;22094;52.130;5.598;2022-10-31T10:21:25;15.90;99.90
23717;DHT22;22094;52.130;5.598;2022-10-31T10:24:15;15.60;99.90
23717;DHT22;22094;52.130;5.598;2022-10-31T10:26:51;15.10;99.90
23717;DHT22;22094;52.130;5.598;2022-10-31T10:29:33;15.80;99.90
23717;DHT22;22094;52.130;5.598;2022-10-31T10:32:03;14.30;99.90
23717;DHT22;22094;52.130;5.598;2022-10-31T10:34:37;17.30;99.90
23717;DHT22;22094;52.130;5.598;2022-10-31T10:37:13;17.10;99.90
23717;DHT22;22094;52.130;5.598;2022-10-31T10:39:46;17.00;99.90
23717;DHT22;22094;52.130;5.598;2022-10-31T10:42:14;16.90;99.90
23717;DHT22;22094;52.130;5.598;2022-10-31T10:44:59;17.00;99.90
23717;DHT22;22094;52.130;5.598;2022-10-31T10:47:49;17.40;99.90
23717;DHT22;22094;52.130;5.598;2022-10-31T10:50:23;16.90;99.90
23717;DHT22;22094;52.130;5.598;2022-10-31T10:56:15;17.00;99.90
23717;DHT22;22094;52.130;5.598;2022-10-31T10:58:42;19.40;99.90
23717;DHT22;22094;52.130;5.598;2022-10-31T11:01:12;17.60;99.90
23717;DHT22;22094;52.130;5.598;2022-10-31T11:03:40;16.60;99.90
23717;DHT22;22094;52.130;5.598;2022-10-31T11:06:19;16.40;99.90
23717;DHT22;22094;52.130;5.598;2022-10-31T11:08:48;16.60;99.90
23717;DHT22;22094;52.130;5.598;2022-10-31T11:13:44;19.00;99.90
23717;DHT22;22094;52.130;5.598;2022-10-31T11:18:50;16.70;99.90
23717;DHT22;22094;52.130;5.598;2022-10-31T11:21:28;16.20;99.90
23717;DHT22;22094;52.130;5.598;2022-10-31T11:29:03;15.50;99.90
23717;DHT22;22094;52.130;5.598;2022-10-31T11:31:29;17.70;99.90
23717;DHT22;22094;52.130;5.598;2022-10-31T11:34:19;16.70;99.90
23717;DHT22;22094;52.130;5.598;2022-10-31T11:36:47;15.30;99.90
23717;DHT22;22094;52.130;5.598;2022-10-31T11:39:22;17.70;99.90
23717;DHT22;22094;52.130;5.598;2022-10-31T11:41:49;16.20;99.90
23717;DHT22;22094;52.130;5.598;2022-10-31T11:44:18;17.10;99.90
23717;DHT22;22094;52.130;5.598;2022-10-31T11:46:52;15.50;99.90
23717;DHT22;22094;52.130;5.598;2022-10-31T11:49:31;16.70;99.90
23717;DHT22;22094;52.130;5.598;2022-10-31T11:52:01;16.60;99.90
23717;DHT22;22094;52.130;5.598;2022-10-31T11:54:38;19.10;99.90
23717;DHT22;22094;52.130;5.598;2022-10-31T11:59:57;16.70;99.90
23717;DHT22;22094;52.130;5.598;2022-10-31T12:02:24;14.50;99.90
23717;DHT22;22094;52.130;5.598;2022-10-31T12:15:29;14.70;99.90
23717;DHT22;22094;52.130;5.598;2022-10-31T12:18:21;15.90;99.90
23717;DHT22;22094;52.130;5.598;2022-10-31T12:21:12;18.40;99.90
23717;DHT22;22094;52.130;5.598;2022-10-31T12:37:40;19.10;99.90
23717;DHT22;22094;52.130;5.598;2022-10-31T12:42:58;17.40;99.90
23717;DHT22;22094;52.130;5.598;2022-10-31T12:45:57;18.10;99.90
23717;DHT22;22094;52.130;5.598;2022-10-31T12:51:28;17.20;99.90
23717;DHT22;22094;52.130;5.598;2022-10-31T12:56:58;17.70;99.90
23717;DHT22;22094;52.130;5.598;2022-10-31T12:59:45;16.50;99.90
23717;DHT22;22094;52.130;5.598;2022-10-31T13:05:37;18.00;99.90
23717;DHT22;22094;52.130;5.598;2022-10-31T13:08:13;18.10;99.90
23717;DHT22;22094;52.130;5.598;2022-10-31T13:13:36;19.10;99.90
23717;DHT22;22094;52.130;5.598;2022-10-31T13:16:24;18.10;99.90
23717;DHT22;22094;52.130;5.598;2022-10-31T13:18:55;17.90;99.90
23717;DHT22;22094;52.130;5.598;2022-10-31T13:21:46;18.70;99.90
23717;DHT22;22094;52.130;5.598;2022-10-31T13:24:19;18.00;99.90
23717;DHT22;22094;52.130;5.598;2022-10-31T13:26:54;15.70;99.90
23717;DHT22;22094;52.130;5.598;2022-10-31T13:29:38;19.80;99.90
23717;DHT22;22094;52.130;5.598;2022-10-31T13:32:06;17.80;99.90
23717;DHT22;22094;52.130;5.598;2022-10-31T13:34:36;15.40;99.90
23717;DHT22;22094;52.130;5.598;2022-10-31T13:37:36;18.10;99.90
23717;DHT22;22094;52.130;5.598;2022-10-31T13:45:25;19.50;99.90
23717;DHT22;22094;52.130;5.598;2022-10-31T13:48:00;17.70;99.90
23717;DHT22;22094;52.130;5.598;2022-10-31T13:50:28;17.70;99.90
23717;DHT22;22094;52.130;5.598;2022-10-31T13:58:34;17.90;99.90
23717;DHT22;22094;52.130;5.598;2022-10-31T14:03:33;15.80;99.90
23717;DHT22;22094;52.130;5.598;2022-10-31T14:06:00;17.70;99.90
23717;DHT22;22094;52.130;5.598;2022-10-31T14:08:27;17.80;99.90
23717;DHT22;22094;52.130;5.598;2022-10-31T14:10:54;17.60;99.90
23717;DHT22;22094;52.130;5.598;2022-10-31T14:13:36;16.20;99.90
23717;DHT22;22094;52.130;5.598;2022-10-31T14:16:16;17.90;99.90
23717;DHT22;22094;52.130;5.598;2022-10-31T14:18:50;16.80;99.90
23717;DHT22;22094;52.130;5.598;2022-10-31T14:23:49;17.40;99.90
23717;DHT22;22094;52.130;5.598;2022-10-31T14:29:20;17.10;99.90
23717;DHT22;22094;52.130;5.598;2022-10-31T14:34:50;17.30;99.90
23717;DHT22;22094;52.130;5.598;2022-10-31T14:40:04;17.10;99.90
23717;DHT22;22094;52.130;5.598;2022-10-31T14:51:00;17.90;99.90
23717;DHT22;22094;52.130;5.598;2022-10-31T14:53:30;17.00;99.90
23717;DHT22;22094;52.130;5.598;2022-10-31T14:55:57;20.00;99.90
23717;DHT22;22094;52.130;5.598;2022-10-31T14:58:41;17.20;99.90
23717;DHT22;22094;52.130;5.598;2022-10-31T15:01:29;17.00;99.90
23717;DHT22;22094;52.130;5.598;2022-10-31T15:06:40;17.00;99.90
23717;DHT22;22094;52.130;5.598;2022-10-31T15:09:21;16.90;99.90
23717;DHT22;22094;52.130;5.598;2022-10-31T15:11:46;16.90;99.90
23717;DHT22;22094;52.130;5.598;2022-10-31T15:14:30;16.80;99.90
23717;DHT22;22094;52.130;5.598;2022-10-31T15:17:01;16.80;99.90
23717;DHT22;22094;52.130;5.598;2022-10-31T15:19:30;16.80;99.90
23717;DHT22;22094;52.130;5.598;2022-10-31T15:21:57;16.70;99.90
23717;DHT22;22094;52.130;5.598;2022-10-31T15:24:25;19.80;99.90
23717;DHT22;22094;52.130;5.598;2022-10-31T15:26:53;16.60;99.90
23717;DHT22;22094;52.130;5.598;2022-10-31T15:29:23;16.40;99.90
23717;DHT22;22094;52.130;5.598;2022-10-31T15:31:59;17.40;99.90
23717;DHT22;22094;52.130;5.598;2022-10-31T15:37:01;16.50;99.90
23717;DHT22;22094;52.130;5.598;2022-10-31T15:39:27;17.10;99.90
23717;DHT22;22094;52.130;5.598;2022-10-31T15:41:57;16.40;99.90
23717;DHT22;22094;52.130;5.598;2022-10-31T15:44:39;16.30;99.90
23717;DHT22;22094;52.130;5.598;2022-10-31T15:47:17;16.30;99.90
23717;DHT22;22094;52.130;5.598;2022-10-31T15:50:04;16.20;99.90
23717;DHT22;22094;52.130;5.598;2022-10-31T15:52:42;16.20;99.90
23717;DHT22;22094;52.130;5.598;2022-10-31T15:55:15;16.20;99.90
23717;DHT22;22094;52.130;5.598;2022-10-31T15:57:47;16.10;99.90
23717;DHT22;22094;52.130;5.598;2022-10-31T16:03:06;16.10;99.90
23717;DHT22;22094;52.130;5.598;2022-10-31T16:05:38;16.00;99.90
23717;DHT22;22094;52.130;5.598;2022-10-31T16:08:04;16.00;99.90
23717;DHT22;22094;52.130;5.598;2022-10-31T16:10:46;16.00;99.90
23717;DHT22;22094;52.130;5.598;2022-10-31T16:13:11;15.90;99.90
23717;DHT22;22094;52.130;5.598;2022-10-31T16:15:37;16.00;99.90
23717;DHT22;22094;52.130;5.598;2022-10-31T16:18:02;15.90;99.90
23717;DHT22;22094;52.130;5.598;2022-10-31T16:20:28;15.90;99.90
23717;DHT22;22094;52.130;5.598;2022-10-31T16:22:57;15.80;99.90
23717;DHT22;22094;52.130;5.598;2022-10-31T16:25:29;15.80;99.90
23717;DHT22;22094;52.130;5.598;2022-10-31T16:28:04;15.70;99.90
23717;DHT22;22094;52.130;5.598;2022-10-31T16:30:39;15.70;99.90
23717;DHT22;22094;52.130;5.598;2022-10-31T16:35:46;15.50;99.90
23717;DHT22;22094;52.130;5.598;2022-10-31T16:38:11;15.50;99.90
23717;DHT22;22094;52.130;5.598;2022-10-31T16:40:40;15.40;99.90
23717;DHT22;22094;52.130;5.598;2022-10-31T16:43:10;15.40;99.90
23717;DHT22;22094;52.130;5.598;2022-10-31T16:45:42;15.30;99.90
23717;DHT22;22094;52.130;5.598;2022-10-31T16:48:17;15.20;99.90
23717;DHT22;22094;52.130;5.598;2022-10-31T16:50:45;15.20;99.90
23717;DHT22;22094;52.130;5.598;2022-10-31T16:53:12;15.10;99.90
23717;DHT22;22094;52.130;5.598;2022-10-31T16:55:53;15.00;99.90
23717;DHT22;22094;52.130;5.598;2022-10-31T16:58:25;15.00;99.90
23717;DHT22;22094;52.130;5.598;2022-10-31T17:00:52;15.00;99.90
23717;DHT22;22094;52.130;5.598;2022-10-31T17:03:18;15.00;99.90
23717;DHT22;22094;52.130;5.598;2022-10-31T17:05:44;15.10;99.90
23717;DHT22;22094;52.130;5.598;2022-10-31T17:08:10;15.00;99.90
23717;DHT22;22094;52.130;5.598;2022-10-31T17:10:35;15.00;99.90
23717;DHT22;22094;52.130;5.598;2022-10-31T17:13:03;15.10;99.90
23717;DHT22;22094;52.130;5.598;2022-10-31T17:15:38;15.00;99.90
23717;DHT22;22094;52.130;5.598;2022-10-31T17:18:05;15.00;99.90
23717;DHT22;22094;52.130;5.598;2022-10-31T17:20:31;15.10;99.90
23717;DHT22;22094;52.130;5.598;2022-10-31T17:22:57;15.10;99.90
23717;DHT22;22094;52.130;5.598;2022-10-31T17:25:28;15.10;99.90
23717;DHT22;22094;52.130;5.598;2022-10-31T17:27:54;15.10;99.90
23717;DHT22;22094;52.130;5.598;2022-10-31T17:30:21;15.10;99.90
23717;DHT22;22094;52.130;5.598;2022-10-31T17:32:48;15.00;99.90
23717;DHT22;22094;52.130;5.598;2022-10-31T17:35:14;15.00;99.90
23717;DHT22;22094;52.130;5.598;2022-10-31T17:37:41;14.90;99.90
23717;DHT22;22094;52.130;5.598;2022-10-31T17:40:11;14.90;99.90
23717;DHT22;22094;52.130;5.598;2022-10-31T17:42:37;14.90;99.90
23717;DHT22;22094;52.130;5.598;2022-10-31T17:45:04;14.80;99.90
23717;DHT22;22094;52.130;5.598;2022-10-31T17:47:31;14.80;99.90
23717;DHT22;22094;52.130;5.598;2022-10-31T17:49:56;14.70;99.90
23717;DHT22;22094;52.130;5.598;2022-10-31T17:52:22;14.60;99.90
23717;DHT22;22094;52.130;5.598;2022-10-31T17:54:47;14.80;99.90
23717;DHT22;22094;52.130;5.598;2022-10-31T17:57:13;14.50;99.90
23717;DHT22;22094;52.130;5.598;2022-10-31T17:59:39;14.40;99.90
23717;DHT22;22094;52.130;5.598;2022-10-31T18:02:05;14.30;99.90
23717;DHT22;22094;52.130;5.598;2022-10-31T18:04:34;14.20;99.90
23717;DHT22;22094;52.130;5.598;2022-10-31T18:07:00;14.30;99.90
23717;DHT22;22094;52.130;5.598;2022-10-31T18:09:26;14.20;99.90
23717;DHT22;22094;52.130;5.598;2022-10-31T18:11:51;13.90;99.90
23717;DHT22;22094;52.130;5.598;2022-10-31T18:14:17;13.80;99.90
23717;DHT22;22094;52.130;5.598;2022-10-31T18:16:43;13.90;99.90
23717;DHT22;22094;52.130;5.598;2022-10-31T18:19:12;13.90;99.90
23717;DHT22;22094;52.130;5.598;2022-10-31T18:21:38;13.80;99.90
23717;DHT22;22094;52.130;5.598;2022-10-31T18:24:03;13.90;99.90
23717;DHT22;22094;52.130;5.598;2022-10-31T18:26:29;13.90;99.90
23717;DHT22;22094;52.130;5.598;2022-10-31T18:28:55;14.10;99.90
23717;DHT22;22094;52.130;5.598;2022-10-31T18:31:20;13.90;99.90
23717;DHT22;22094;52.130;5.598;2022-10-31T18:33:46;13.80;99.90
23717;DHT22;22094;52.130;5.598;2022-10-31T18:36:12;13.70;99.90
23717;DHT22;22094;52.130;5.598;2022-10-31T18:38:39;13.60;99.90
23717;DHT22;22094;52.130;5.598;2022-10-31T18:41:06;13.50;99.90
23717;DHT22;22094;52.130;5.598;2022-10-31T18:43:31;13.50;99.90
23717;DHT22;22094;52.130;5.598;2022-10-31T18:46:09;13.30;99.90
23717;DHT22;22094;52.130;5.598;2022-10-31T18:48:36;13.30;99.90
23717;DHT22;22094;52.130;5.598;2022-10-31T18:51:08;13.30;99.90
23717;DHT22;22094;52.130;5.598;2022-10-31T18:53:35;13.20;99.90